• Join FlightAware (Why Join?)
  • Login
  • US Flag 
Rudolph Flight #1: Arrived! 
01:19PM EST


 

Airport Tracker/Info


-or-


 

Live Flight TrackerFlight Track Log ✈ N33TR ✈ 14-Jun-2013 ✈ MMMV / LOV - KDAL

Flight Track Log - Related Links

Times and Time Zones

All times are in EDT time to prevent confusion due to time zone crossing. See the N33TR flight status page for this flight to view local times or setup timezone preferences in your user account.

Time Position Orientation Groundspeed Altitude Reporting Facility
EDT Latitude Longitude Course Direction KTS MPH feet Rate Location/Type
01:05PM 27.0542 -101.1086 78° East 297 342 17,200  Level Houston Center
01:06PM 27.0719 -101.0131 78° East 308 354 19,100 1,620 Climbing Houston Center
01:07PM 27.0994 -100.9144 73° East 326 375 20,600 1,260 Climbing Houston Center
01:08PM 27.1281 -100.8067 73° East 351 404 21,800 1,200 Climbing Houston Center
01:09PM 27.1561 -100.6961 74° East 364 419 23,100 1,260 Climbing Houston Center
01:10PM 27.1911 -100.5578 74° East 382 440 24,500 1,080 Climbing Houston Center
01:11PM 27.2211 -100.4392 74° East 391 450 25,400 900 Climbing Houston Center
01:12PM 27.2517 -100.3167 74° East 402 463 26,400 960 Climbing Houston Center
01:13PM 27.2828 -100.1939 74° East 408 470 27,400 900 Climbing Houston Center
01:14PM 27.3158 -100.0703 73° East 412 474 28,300 960 Climbing Houston Center
01:15PM 27.3519 -99.9172 75° East 420 483 29,400 900 Climbing Houston Center
01:16PM 27.3842 -99.7903 74° East 421 484 30,200 720 Climbing Houston Center
01:18PM 27.4156 -99.6617 75° East 426 490 31,000 720 Climbing Houston Center
01:19PM 27.4478 -99.5322 74° East 429 494 31,800 720 Climbing Houston Center
01:20PM 27.4808 -99.4028 74° East 430 495 32,600 720 Climbing Houston Center
01:21PM 27.5200 -99.2778 71° East 426 490 33,300 720 Climbing Houston Center
01:22PM 27.5800 -99.1594 60° Northeast 430 495 34,200 780 Climbing Houston Center
01:23PM 27.6839 -99.0472 44° Northeast 433 498 35,000 780 Climbing Houston Center
01:24PM 27.7961 -99.0142 15° North 417 480 35,900 720 Climbing Houston Center
01:25PM 27.9072 -98.9844 13° North 411 473 36,600 480 Climbing Houston Center
01:26PM 28.0192 -98.9489 16° North 414 476 37,000 180 Climbing Houston Center
01:27PM 28.1344 -98.9136 15° North 426 490 37,000  Level Houston Center
01:28PM 28.2528 -98.8789 14° North 437 503 37,000  Level Houston Center
01:29PM 28.3736 -98.8425 15° North 446 513 37,000  Level Houston Center
01:30PM 28.5189 -98.7997 15° North 449 517 37,000  Level Houston Center
01:31PM 28.6394 -98.7619 15° North 449 517 37,000  Level Houston Center
01:32PM 28.7675 -98.7258 14° North 448 516 37,000  Level Houston Center
01:33PM 28.8967 -98.6872 15° North 447 514 37,000  Level Houston Center
01:34PM 29.0169 -98.6503 15° North 448 516 37,000  Level Houston Center
01:35PM 29.1481 -98.6119 14° North 449 517 37,000  Level Houston Center
01:36PM 29.2694 -98.5742 15° North 451 519 37,000  Level Houston Center
01:37PM 29.3911 -98.5381 14° North 451 519 37,000  Level Houston Center
01:38PM 29.5042 -98.5044 15° North 458 527 37,000  Level Houston Center
01:39PM 29.6300 -98.4653 15° North 467 537 37,000  Level Houston Center
01:40PM 29.7786 -98.4389 North 447 514 37,000  Level Houston Center
01:41PM 29.9153 -98.4233 North 456 525 37,000  Level Houston Center
01:42PM 30.0403 -98.4019 North 457 526 37,000  Level Houston Center
01:43PM 30.1772 -98.3822 North 456 525 37,000  Level Houston Center
01:44PM 30.3039 -98.3639 North 458 527 37,000  Level Houston Center
01:45PM 30.4272 -98.3450 North 467 537 37,000  Level Houston Center
01:46PM 30.5553 -98.3261 North 460 529 37,000  Level Houston Center
01:48PM 30.6847 -98.3075 North 460 529 37,000  Level Houston Center
01:49PM 30.8131 -98.2892 North 459 528 37,000  Level Houston Center
01:50PM 30.9617 -98.2658 North 456 525 37,000  Level Houston Center
01:51PM 31.0911 -98.2472 North 458 527 37,000 -240 Level Houston Center
01:52PM 31.1958 -98.2317 North 459 528 36,600 -960 Descending Fort Worth Center
01:53PM 31.3361 -98.2086 North 464 534 35,200 -1,500 Descending Fort Worth Center
01:54PM 31.4594 -98.1489 22° Northeast 470 541 33,600 -1,560 Descending Fort Worth Center
01:55PM 31.5831 -98.0767 26° Northeast 475 547 32,100 -1,500 Descending Fort Worth Center
01:56PM 31.7025 -98.0117 25° Northeast 480 552 30,600 -1,920 Descending Fort Worth Center
01:57PM 31.8239 -97.9439 25° Northeast 480 552 28,300 -2,700 Descending Fort Worth Center
01:58PM 31.9453 -97.8786 25° Northeast 478 550 25,300 -3,180 Descending Fort Worth Center
01:59PM 32.0581 -97.8153 25° Northeast 455 524 22,000 -3,120 Descending Fort Worth Center
02:00PM 32.1711 -97.7544 24° Northeast 455 524 19,100 -3,120 Descending Fort Worth Center
02:01PM 32.2797 -97.6936 25° Northeast 432 497 15,800 -3,000 Descending Fort Worth Center
02:02PM 32.3675 -97.6275 32° Northeast 393 452 13,200 -2,400 Descending Fort Worth Center
02:03PM 32.4325 -97.5489 46° Northeast 339 390 11,100 -1,200 Descending Fort Worth Center
02:04PM 32.4994 -97.4700 45° Northeast 328 377 10,900 -120 Descending Fort Worth Center
02:05PM 32.5642 -97.3936 45° Northeast 328 377 10,900  Level Fort Worth Center
02:05PM 32.5833 -97.3667 50° Northeast 335 386 10,900  Level Dallas / Fort Worth TRACON
02:06PM 32.6286 -97.3122 45° Northeast 328 377 10,900  Level Fort Worth Center
02:07PM 32.6933 -97.2381 44° Northeast 328 377 10,900 -120 Level Fort Worth Center
02:08PM 32.7475 -97.1739 45° Northeast 301 346 10,700 -1,140 Descending Fort Worth Center
02:09PM 32.8206 -97.1736 360° North 246 283 8,700 -1,920 Descending Fort Worth Center
02:10PM 32.8811 -97.1736 360° North 246 283 6,900 -2,100 Descending Fort Worth Center
02:11PM 32.9247 -97.1017 54° Northeast 215 247 4,500 -2,280 Descending Fort Worth Center
02:11PM 32.9333 -97.0667 74° East 234 269 3,900 -480 Descending Dallas / Fort Worth TRACON
02:12PM 32.9500 -97.0167 68° East 196 226 3,900 -420 Level Dallas / Fort Worth TRACON
02:13PM 32.9333 -96.9500 107° East 190 219 3,200 -1,020 Descending Dallas / Fort Worth TRACON
02:14PM 32.9000 -96.9000 128° Southeast 180 207 1,900 -1,200 Descending Dallas / Fort Worth TRACON
02:15PM 32.8667 -96.8667 140° Southeast 164 189 800 -1,140 Descending Dallas / Fort Worth TRACON
02:17PM 32.8471 -96.8518 115° Southeast  Level Estimated
02:24PM 32.8471 -96.8518 115° Southeast  Level Estimated